createdAt,value
2017-12-20T00:01:03.168Z,27.43
2017-12-20T00:03:30.757Z,22.70
2017-12-20T00:05:58.416Z,22.37
2017-12-20T00:08:26.013Z,25.50
2017-12-20T00:10:53.604Z,25.33
2017-12-20T00:13:21.224Z,23.10
2017-12-20T00:15:48.892Z,25.43
2017-12-20T00:18:16.512Z,25.43
2017-12-20T00:20:44.087Z,27.20
2017-12-20T00:23:11.697Z,29.97
2017-12-20T00:25:39.309Z,24.43
2017-12-20T00:28:06.901Z,26.67
2017-12-20T00:30:34.528Z,29.60
2017-12-20T00:33:02.131Z,25.50
2017-12-20T00:35:29.759Z,41.90
2017-12-20T00:37:57.376Z,44.13
2017-12-20T00:40:24.967Z,49.40
2017-12-20T00:42:52.631Z,45.53
2017-12-20T00:45:20.217Z,46.63
2017-12-20T00:47:47.812Z,51.47
2017-12-20T00:50:15.437Z,56.63
2017-12-20T00:52:43.033Z,43.57
2017-12-20T00:55:10.660Z,42.93
2017-12-20T00:57:38.263Z,44.00
2017-12-20T01:00:05.849Z,47.40
2017-12-20T01:02:33.484Z,50.90
2017-12-20T01:05:01.086Z,43.47
2017-12-20T01:07:28.775Z,45.83
2017-12-20T01:09:56.409Z,51.57
2017-12-20T01:12:24.006Z,37.23
2017-12-20T01:14:51.612Z,46.00
2017-12-20T01:17:19.225Z,47.23
2017-12-20T01:19:46.849Z,45.00
2017-12-20T01:22:14.456Z,46.10
2017-12-20T01:24:42.045Z,40.53
2017-12-20T01:27:09.953Z,46.80
2017-12-20T01:29:37.532Z,38.37
2017-12-20T01:32:05.164Z,38.57
2017-12-20T01:34:32.764Z,41.73
2017-12-20T01:37:00.354Z,39.30
2017-12-20T01:39:27.980Z,37.50
2017-12-20T01:41:55.574Z,38.97
2017-12-20T01:44:23.206Z,36.70
2017-12-20T01:46:50.884Z,34.47
2017-12-20T01:49:18.504Z,35.57
2017-12-20T01:51:46.152Z,38.50
2017-12-20T01:54:13.757Z,31.93
2017-12-20T01:56:41.396Z,36.73
2017-12-20T01:59:08.990Z,31.80
2017-12-20T02:01:36.582Z,32.93
2017-12-20T02:04:04.485Z,34.10
2017-12-20T02:06:32.355Z,32.57
2017-12-20T02:09:00.627Z,39.97
2017-12-20T02:11:28.220Z,32.30
2017-12-20T02:13:55.815Z,32.27
2017-12-20T02:16:23.520Z,32.40
2017-12-20T02:18:51.115Z,30.00
2017-12-20T02:21:18.847Z,30.80
2017-12-20T02:23:46.482Z,32.57
2017-12-20T02:26:14.076Z,27.47
2017-12-20T02:28:41.700Z,28.33
2017-12-20T02:31:09.320Z,27.23
2017-12-20T02:33:36.959Z,28.13
2017-12-20T02:36:04.588Z,25.20
2017-12-20T02:38:39.125Z,27.07
2017-12-20T02:41:09.500Z,25.03
2017-12-20T02:43:42.032Z,26.70
2017-12-20T02:46:09.726Z,25.60
2017-12-20T02:48:37.332Z,24.17
2017-12-20T02:51:04.980Z,19.97
2017-12-20T02:53:32.577Z,22.90
2017-12-20T02:56:00.232Z,23.37
2017-12-20T02:58:28.123Z,22.57
2017-12-20T03:00:55.718Z,22.33
2017-12-20T03:03:23.381Z,28.20
2017-12-20T03:05:50.982Z,20.70
2017-12-20T03:08:18.636Z,31.07
2017-12-20T03:10:46.311Z,25.40
2017-12-20T03:13:13.905Z,26.43
2017-12-20T03:15:41.517Z,24.40
2017-12-20T03:18:09.104Z,24.60
2017-12-20T03:20:37.096Z,25.10
2017-12-20T03:23:04.691Z,23.97
2017-12-20T03:25:32.299Z,31.13
2017-12-20T03:27:59.928Z,30.37
2017-12-20T03:30:27.558Z,32.10
2017-12-20T03:32:55.205Z,26.43
2017-12-20T03:35:22.796Z,28.37
2017-12-20T03:37:50.408Z,30.67
2017-12-20T03:40:18.296Z,28.87
2017-12-20T03:42:45.899Z,34.40
2017-12-20T03:45:13.828Z,30.80
2017-12-20T03:47:41.409Z,40.37
2017-12-20T03:50:08.990Z,27.77
2017-12-20T03:52:36.615Z,27.17
2017-12-20T03:55:04.208Z,36.23
2017-12-20T03:57:31.832Z,29.60
2017-12-20T03:59:59.411Z,31.70
2017-12-20T04:02:27.044Z,32.17
2017-12-20T04:04:54.692Z,32.93
2017-12-20T04:07:22.315Z,29.60
2017-12-20T04:09:49.927Z,28.80
2017-12-20T04:12:17.534Z,30.60
2017-12-20T04:14:45.128Z,26.67
2017-12-20T04:17:12.748Z,29.63
2017-12-20T04:19:40.318Z,26.93
2017-12-20T04:22:07.935Z,30.70
2017-12-20T04:24:35.783Z,31.27
2017-12-20T04:27:03.369Z,25.70
2017-12-20T04:29:30.993Z,36.13
2017-12-20T04:31:58.585Z,28.90
2017-12-20T04:34:26.273Z,33.30
2017-12-20T04:36:53.870Z,31.63
2017-12-20T04:39:21.468Z,33.07
2017-12-20T04:41:49.166Z,28.97
2017-12-20T04:44:17.748Z,46.53
2017-12-20T04:46:45.372Z,32.30
2017-12-20T04:49:12.965Z,30.77
2017-12-20T04:51:40.846Z,33.00
2017-12-20T04:54:08.864Z,35.30
2017-12-20T04:56:36.498Z,25.53
2017-12-20T04:59:04.129Z,29.97
2017-12-20T05:01:31.732Z,30.93
2017-12-20T05:03:59.563Z,32.43
2017-12-20T05:06:27.173Z,33.53
2017-12-20T05:08:54.836Z,36.23
2017-12-20T05:11:22.475Z,31.50
2017-12-20T05:13:50.417Z,34.33
2017-12-20T05:16:18.389Z,31.00
2017-12-20T05:18:46.012Z,37.30
2017-12-20T05:21:13.595Z,37.43
2017-12-20T05:23:41.218Z,52.23
2017-12-20T05:26:09.172Z,33.23
2017-12-20T05:28:37.116Z,29.90
2017-12-20T05:31:04.735Z,33.10
2017-12-20T05:33:32.328Z,36.80
2017-12-20T05:35:59.992Z,33.17
2017-12-20T05:38:27.581Z,34.63
2017-12-20T05:40:55.168Z,32.30
2017-12-20T05:43:22.832Z,34.70
2017-12-20T05:45:50.425Z,33.20
2017-12-20T05:48:18.059Z,31.10
2017-12-20T05:50:45.648Z,32.03
2017-12-20T05:53:13.547Z,32.50
2017-12-20T05:55:41.156Z,29.70
2017-12-20T05:58:08.735Z,29.93
2017-12-20T06:00:37.198Z,38.27
2017-12-20T06:03:05.118Z,32.40
2017-12-20T06:05:32.696Z,35.13
2017-12-20T06:08:00.646Z,35.70
2017-12-20T06:10:28.223Z,35.47
2017-12-20T06:12:56.278Z,26.43
2017-12-20T06:15:23.849Z,29.83
2017-12-20T06:17:51.443Z,29.73
2017-12-20T06:20:19.060Z,34.70
2017-12-20T06:22:46.940Z,32.57
2017-12-20T06:25:14.555Z,37.03
2017-12-20T06:27:42.133Z,28.20
2017-12-20T06:30:09.724Z,32.37
2017-12-20T06:32:37.327Z,29.73
2017-12-20T06:35:04.912Z,31.07
2017-12-20T06:37:32.805Z,34.03
2017-12-20T06:40:00.398Z,28.63
2017-12-20T06:42:27.998Z,25.23
2017-12-20T06:44:55.730Z,27.47
2017-12-20T06:47:23.700Z,31.07
2017-12-20T06:49:51.324Z,33.73
2017-12-20T06:52:18.994Z,33.17
2017-12-20T06:54:46.600Z,30.17
2017-12-20T06:57:14.236Z,27.33
2017-12-20T06:59:41.845Z,29.13
2017-12-20T07:02:09.440Z,28.17
2017-12-20T07:04:37.414Z,35.27
2017-12-20T07:07:05.013Z,30.93
2017-12-20T07:09:32.613Z,26.50
2017-12-20T07:12:00.501Z,30.63
2017-12-20T07:14:28.104Z,29.40
2017-12-20T07:16:55.763Z,26.73
2017-12-20T07:19:23.393Z,30.30
2017-12-20T07:21:51.009Z,31.17
2017-12-20T07:24:18.632Z,27.33
2017-12-20T07:26:46.229Z,34.80
2017-12-20T07:29:14.145Z,30.10
2017-12-20T07:31:41.725Z,31.37
2017-12-20T07:34:09.313Z,33.30
2017-12-20T07:36:37.153Z,28.53
2017-12-20T07:39:04.745Z,34.20
2017-12-20T07:41:32.397Z,30.40
2017-12-20T07:44:00.037Z,33.93
2017-12-20T07:46:27.628Z,31.50
2017-12-20T07:48:55.229Z,32.20
2017-12-20T07:51:22.891Z,29.10
2017-12-20T07:53:50.512Z,29.20
2017-12-20T07:56:18.419Z,35.67
2017-12-20T07:58:46.079Z,26.40
2017-12-20T08:01:13.682Z,28.60
2017-12-20T08:03:41.304Z,35.53
2017-12-20T08:06:08.945Z,37.13
2017-12-20T08:08:36.524Z,33.73
2017-12-20T08:11:04.113Z,31.53
2017-12-20T08:13:31.979Z,31.50
2017-12-20T08:15:59.572Z,31.40
2017-12-20T08:18:27.424Z,38.93
2017-12-20T08:20:55.274Z,27.30
2017-12-20T08:23:23.109Z,29.30
2017-12-20T08:25:50.719Z,40.07
2017-12-20T08:28:18.306Z,25.03
2017-12-20T08:30:46.028Z,30.00
2017-12-20T08:33:13.616Z,28.63
2017-12-20T08:35:41.456Z,28.10
2017-12-20T08:38:09.325Z,25.13
2017-12-20T08:40:37.080Z,28.50
2017-12-20T08:43:04.704Z,24.17
2017-12-20T08:45:32.293Z,30.57
2017-12-20T08:47:59.916Z,30.50
2017-12-20T08:50:27.603Z,23.30
2017-12-20T08:52:58.265Z,25.03
2017-12-20T08:55:25.993Z,26.07
2017-12-20T08:57:53.957Z,28.33
2017-12-20T09:00:21.536Z,32.97
2017-12-20T09:02:49.285Z,27.20
2017-12-20T09:05:16.924Z,32.57
2017-12-20T09:07:44.542Z,28.53
2017-12-20T09:10:12.425Z,31.40
2017-12-20T09:12:40.040Z,30.73
2017-12-20T09:15:07.957Z,28.30
2017-12-20T09:17:35.550Z,29.17
2017-12-20T09:20:03.215Z,34.47
2017-12-20T09:22:30.792Z,31.03
2017-12-20T09:24:58.384Z,32.13
2017-12-20T09:27:25.999Z,36.33
2017-12-20T09:29:53.707Z,37.20
2017-12-20T09:32:21.336Z,36.20
2017-12-20T09:34:48.922Z,34.17
2017-12-20T09:37:16.548Z,36.13
2017-12-20T09:39:44.490Z,31.97
2017-12-20T09:42:12.154Z,34.23
2017-12-20T09:44:39.781Z,37.03
2017-12-20T09:47:07.604Z,42.77
2017-12-20T09:49:35.182Z,36.40
2017-12-20T09:52:02.826Z,40.37
2017-12-20T09:54:30.432Z,46.03
2017-12-20T09:56:58.477Z,40.77
2017-12-20T09:59:26.120Z,40.47
2017-12-20T10:01:54.816Z,43.00
2017-12-20T10:04:22.465Z,40.50
2017-12-20T10:06:50.089Z,35.50
2017-12-20T10:09:17.728Z,42.77
2017-12-20T10:11:45.351Z,46.47
2017-12-20T10:14:13.010Z,37.20
2017-12-20T10:16:40.670Z,34.47
2017-12-20T10:19:08.270Z,37.67
2017-12-20T10:21:35.900Z,38.00
2017-12-20T10:24:03.488Z,42.97
2017-12-20T10:26:31.114Z,40.70
2017-12-20T10:28:58.776Z,42.60
2017-12-20T10:31:26.759Z,43.43
2017-12-20T10:33:54.714Z,39.57
2017-12-20T10:36:22.581Z,37.33
2017-12-20T10:38:50.448Z,47.53
2017-12-20T10:41:18.220Z,36.03
2017-12-20T10:43:45.792Z,42.30
2017-12-20T10:46:13.417Z,42.67
2017-12-20T10:48:40.995Z,38.00
2017-12-20T10:51:08.594Z,43.47
2017-12-20T10:53:36.214Z,46.97
2017-12-20T10:56:04.100Z,38.73
2017-12-20T10:58:31.730Z,37.47
2017-12-20T11:00:59.312Z,49.83
2017-12-20T11:03:26.900Z,36.70
2017-12-20T11:05:54.504Z,40.63
2017-12-20T11:08:22.103Z,32.27
2017-12-20T11:10:49.733Z,46.73
2017-12-20T11:13:17.324Z,31.03
2017-12-20T11:15:44.908Z,36.50
2017-12-20T11:18:12.532Z,37.67
2017-12-20T11:20:40.132Z,36.67
2017-12-20T11:23:07.753Z,35.33
2017-12-20T11:25:35.332Z,37.73
2017-12-20T11:28:02.971Z,33.73
2017-12-20T11:30:30.576Z,44.43
2017-12-20T11:32:58.173Z,43.73
2017-12-20T11:35:26.084Z,35.30
2017-12-20T11:37:53.664Z,39.47
2017-12-20T11:40:21.260Z,39.97
2017-12-20T11:42:48.870Z,34.40
2017-12-20T11:45:16.475Z,34.70
2017-12-20T11:47:44.089Z,37.30
2017-12-20T11:50:11.669Z,33.80
2017-12-20T11:52:39.265Z,43.97
2017-12-20T11:55:06.868Z,44.43
2017-12-20T11:57:34.440Z,50.67
2017-12-20T12:00:02.068Z,42.43
2017-12-20T12:02:29.652Z,42.50
2017-12-20T12:04:57.258Z,45.60
2017-12-20T12:07:24.964Z,42.30
2017-12-20T12:09:52.561Z,40.20
2017-12-20T12:12:20.184Z,43.40
2017-12-20T12:14:48.090Z,38.30
2017-12-20T12:17:15.681Z,37.00
2017-12-20T12:19:43.290Z,40.57
2017-12-20T12:22:10.888Z,41.63
2017-12-20T12:24:38.529Z,43.90
2017-12-20T12:27:06.364Z,37.80
2017-12-20T12:29:33.946Z,39.27
2017-12-20T12:32:01.559Z,44.53
2017-12-20T12:34:29.158Z,41.70
2017-12-20T12:36:56.820Z,35.90
2017-12-20T12:39:24.405Z,38.83
2017-12-20T12:41:51.998Z,38.33
2017-12-20T12:44:19.944Z,42.47
2017-12-20T12:46:47.591Z,41.43
2017-12-20T12:49:15.217Z,48.83
2017-12-20T12:51:42.792Z,37.90
2017-12-20T12:54:10.394Z,39.47
2017-12-20T12:56:38.009Z,37.97
2017-12-20T12:59:05.598Z,35.33
2017-12-20T13:01:33.228Z,39.93
2017-12-20T13:04:00.817Z,39.33
2017-12-20T13:06:28.412Z,40.03
2017-12-20T13:08:56.020Z,39.93
2017-12-20T13:11:23.632Z,35.77
2017-12-20T13:13:51.271Z,38.50
2017-12-20T13:16:19.149Z,34.70
2017-12-20T13:18:46.745Z,41.03
2017-12-20T13:21:14.364Z,38.20
2017-12-20T13:23:41.967Z,37.63
2017-12-20T13:26:09.899Z,33.47
2017-12-20T13:28:37.500Z,32.83
2017-12-20T13:31:05.089Z,34.93
2017-12-20T13:33:32.719Z,39.90
2017-12-20T13:36:00.556Z,41.87
2017-12-20T13:38:28.181Z,42.67
2017-12-20T13:40:55.814Z,32.63
2017-12-20T13:43:23.401Z,31.83
2017-12-20T13:45:51.016Z,36.20
2017-12-20T13:48:18.620Z,38.23
2017-12-20T13:50:46.252Z,31.17
2017-12-20T13:53:14.098Z,38.27
2017-12-20T13:55:41.706Z,40.47
2017-12-20T13:58:09.321Z,33.10
2017-12-20T14:00:37.187Z,35.97
2017-12-20T14:03:04.834Z,33.60
2017-12-20T14:05:32.430Z,43.27
2017-12-20T14:08:00.029Z,37.00
2017-12-20T14:10:27.660Z,39.53
2017-12-20T14:12:55.248Z,46.27
2017-12-20T14:15:22.848Z,42.93
2017-12-20T14:17:50.461Z,42.33
2017-12-20T14:20:18.080Z,47.40
2017-12-20T14:22:45.680Z,42.23
2017-12-20T14:25:13.320Z,46.47
2017-12-20T14:27:41.184Z,55.77
2017-12-20T14:30:08.766Z,52.60
2017-12-20T14:32:36.712Z,51.60
2017-12-20T14:35:04.314Z,41.00
2017-12-20T14:37:31.953Z,45.70
2017-12-20T14:39:59.555Z,39.10
2017-12-20T14:42:27.157Z,52.43
2017-12-20T14:44:54.764Z,37.60
2017-12-20T14:47:23.294Z,37.53
2017-12-20T14:49:51.275Z,36.60
2017-12-20T14:52:18.856Z,35.53
2017-12-20T14:54:46.445Z,42.53
2017-12-20T14:57:14.372Z,38.50
2017-12-20T14:59:42.009Z,42.73
2017-12-20T15:02:09.634Z,49.77
2017-12-20T15:04:37.228Z,54.00
2017-12-20T15:07:04.816Z,45.23
2017-12-20T15:09:32.424Z,52.73
2017-12-20T15:12:00.345Z,50.90
2017-12-20T15:14:27.979Z,49.87
2017-12-20T15:16:55.564Z,46.57
2017-12-20T15:19:23.144Z,54.30
2017-12-20T15:21:50.760Z,59.30
2017-12-20T15:24:18.365Z,52.47
2017-12-20T15:26:46.317Z,53.97
2017-12-20T15:29:14.184Z,46.13
2017-12-20T15:31:41.764Z,56.90
2017-12-20T15:34:10.013Z,60.63
2017-12-20T15:36:37.620Z,58.37
2017-12-20T15:39:05.248Z,67.93
2017-12-20T15:41:33.124Z,54.00
2017-12-20T15:44:00.758Z,53.50
2017-12-20T15:46:28.371Z,55.23
2017-12-20T15:48:56.226Z,54.77
2017-12-20T15:51:24.176Z,61.37
2017-12-20T15:53:51.777Z,59.27
2017-12-20T15:56:19.378Z,55.03
2017-12-20T15:58:46.989Z,64.93
2017-12-20T16:01:14.583Z,65.73
2017-12-20T16:03:42.245Z,64.87
2017-12-20T16:06:09.833Z,67.57
2017-12-20T16:08:37.443Z,52.00
2017-12-20T16:11:05.058Z,66.37
2017-12-20T16:13:32.644Z,59.73
2017-12-20T16:16:00.337Z,61.40
2017-12-20T16:18:27.949Z,56.03
2017-12-20T16:20:55.832Z,64.90
2017-12-20T16:23:23.462Z,57.63
2017-12-20T16:25:51.040Z,52.47
2017-12-20T16:28:18.681Z,59.97
2017-12-20T16:30:46.273Z,64.13
2017-12-20T16:33:13.876Z,68.07
2017-12-20T16:35:41.909Z,62.77
2017-12-20T16:38:09.526Z,64.93
2017-12-20T16:40:37.737Z,66.03
2017-12-20T16:43:05.617Z,53.30
2017-12-20T16:45:33.244Z,63.43
2017-12-20T16:48:01.028Z,63.80
2017-12-20T16:50:28.667Z,61.17
2017-12-20T16:52:56.774Z,59.33
2017-12-20T16:55:24.397Z,60.80
2017-12-20T16:57:52.316Z,64.67
2017-12-20T17:00:19.928Z,67.47
2017-12-20T17:02:47.543Z,60.43
2017-12-20T17:05:15.509Z,63.00
2017-12-20T17:07:43.095Z,60.33
2017-12-20T17:10:10.679Z,74.50
2017-12-20T17:12:38.320Z,54.93
2017-12-20T17:15:06.266Z,66.23
2017-12-20T17:17:33.905Z,70.87
2017-12-20T17:20:01.528Z,61.40
2017-12-20T17:22:29.128Z,63.10
2017-12-20T17:24:56.750Z,56.97
2017-12-20T17:27:24.332Z,61.23
2017-12-20T17:29:51.993Z,62.93
2017-12-20T17:32:19.843Z,60.63
2017-12-20T17:34:47.775Z,67.97
2017-12-20T17:37:15.390Z,65.13
2017-12-20T17:39:43.009Z,62.63
2017-12-20T17:42:11.325Z,64.80
2017-12-20T17:44:38.963Z,63.33
2017-12-20T17:47:06.876Z,67.57
2017-12-20T17:49:34.536Z,73.33
2017-12-20T17:52:02.181Z,57.37
2017-12-20T17:54:29.961Z,81.53
2017-12-20T17:56:57.572Z,62.40
2017-12-20T17:59:25.428Z,61.60
2017-12-20T18:01:53.048Z,63.33
2017-12-20T18:04:20.655Z,62.80
2017-12-20T18:06:48.331Z,55.97
2017-12-20T18:09:15.955Z,56.17
2017-12-20T18:11:43.950Z,65.07
2017-12-20T18:14:11.583Z,68.20
2017-12-20T18:16:39.190Z,54.80
2017-12-20T18:19:06.835Z,70.50
2017-12-20T18:21:34.460Z,61.83
2017-12-20T18:24:02.076Z,65.40
2017-12-20T18:26:29.732Z,70.00
2017-12-20T18:28:57.380Z,61.53
2017-12-20T18:31:25.044Z,69.47
2017-12-20T18:33:52.631Z,74.33
2017-12-20T18:36:20.471Z,78.40
2017-12-20T18:38:48.114Z,65.40
2017-12-20T18:41:15.716Z,75.53
2017-12-20T18:43:43.381Z,65.10
2017-12-20T18:46:10.985Z,68.57
2017-12-20T18:48:38.602Z,71.37
2017-12-20T18:51:06.233Z,68.57
2017-12-20T18:53:33.859Z,63.97
2017-12-20T18:56:01.499Z,72.67
2017-12-20T18:58:29.124Z,86.00
2017-12-20T19:00:56.716Z,71.60
2017-12-20T19:03:24.344Z,78.10
2017-12-20T19:05:51.942Z,70.10
2017-12-20T19:08:19.895Z,66.47
2017-12-20T19:10:49.223Z,75.97
2017-12-20T19:13:16.896Z,72.10
2017-12-20T19:15:44.525Z,67.53
2017-12-20T19:18:12.147Z,71.60
2017-12-20T19:20:39.841Z,62.93
2017-12-20T19:23:07.721Z,69.70
2017-12-20T19:25:35.321Z,82.37
2017-12-20T19:28:03.065Z,71.50
2017-12-20T19:30:30.680Z,67.67
2017-12-20T19:32:58.304Z,72.23
2017-12-20T19:35:25.980Z,75.10
2017-12-20T19:37:53.574Z,78.70
2017-12-20T19:40:21.204Z,79.27
2017-12-20T19:42:50.263Z,69.63
2017-12-20T19:45:17.922Z,70.43
2017-12-20T19:47:45.543Z,73.40
2017-12-20T19:50:13.165Z,79.13
2017-12-20T19:52:40.781Z,74.77
2017-12-20T19:55:08.384Z,66.67
2017-12-20T19:57:36.000Z,71.40
2017-12-20T20:00:03.629Z,79.93
2017-12-20T20:02:31.231Z,90.07
2017-12-20T20:04:58.868Z,72.90
2017-12-20T20:07:26.469Z,75.90
2017-12-20T20:09:54.092Z,83.33
2017-12-20T20:12:21.676Z,79.57
2017-12-20T20:14:49.561Z,75.93
2017-12-20T20:17:17.429Z,62.73
2017-12-20T20:19:45.076Z,73.17
2017-12-20T20:22:12.793Z,68.03
2017-12-20T20:24:40.396Z,63.67
2017-12-20T20:27:08.018Z,68.50
2017-12-20T20:29:35.949Z,64.07
2017-12-20T20:32:03.586Z,82.90
2017-12-20T20:34:31.424Z,75.33
2017-12-20T20:36:59.114Z,78.23
2017-12-20T20:39:26.700Z,76.03
2017-12-20T20:41:54.338Z,80.20
2017-12-20T20:44:22.246Z,74.50
2017-12-20T20:46:50.222Z,74.17
2017-12-20T20:49:17.829Z,82.20
2017-12-20T20:51:45.695Z,82.93
2017-12-20T20:54:13.309Z,79.03
2017-12-20T20:56:40.919Z,81.67
2017-12-20T20:59:08.753Z,78.47
2017-12-20T21:01:36.707Z,89.13
2017-12-20T21:04:04.312Z,83.57
2017-12-20T21:06:32.022Z,75.27
2017-12-20T21:08:59.622Z,80.50
2017-12-20T21:11:27.553Z,86.40
2017-12-20T21:13:55.150Z,77.20
2017-12-20T21:16:22.752Z,83.43
2017-12-20T21:18:50.409Z,81.97
2017-12-20T21:21:18.049Z,80.60
2017-12-20T21:23:45.712Z,82.53
2017-12-20T21:26:13.357Z,81.80
2017-12-20T21:28:41.224Z,84.33
2017-12-20T21:31:08.867Z,84.50
2017-12-20T21:33:37.558Z,73.13
2017-12-20T21:36:05.317Z,71.90
2017-12-20T21:38:33.000Z,85.97
2017-12-20T21:41:00.619Z,77.93
2017-12-20T21:43:28.253Z,81.57
2017-12-20T21:45:55.875Z,83.80
2017-12-20T21:48:23.529Z,81.77
2017-12-20T21:50:51.127Z,82.63
2017-12-20T21:53:18.730Z,72.07
2017-12-20T21:55:46.456Z,76.00
2017-12-20T21:58:14.073Z,75.83
2017-12-20T22:00:41.704Z,79.83
2017-12-20T22:03:09.348Z,79.53
2017-12-20T22:05:36.961Z,78.07
2017-12-20T22:08:04.551Z,85.23
2017-12-20T22:10:32.192Z,94.47
2017-12-20T22:12:59.788Z,81.40
2017-12-20T22:15:27.725Z,74.40
2017-12-20T22:17:55.335Z,82.17
2017-12-20T22:20:22.965Z,81.03
2017-12-20T22:22:50.613Z,94.37
2017-12-20T22:25:18.221Z,87.83
2017-12-20T22:27:45.830Z,69.43
2017-12-20T22:30:13.798Z,79.73
2017-12-20T22:32:41.380Z,79.00
2017-12-20T22:35:09.001Z,77.30
2017-12-20T22:37:36.598Z,80.37
2017-12-20T22:40:04.203Z,67.77
2017-12-20T22:42:31.928Z,63.87
2017-12-20T22:44:59.779Z,64.20
2017-12-20T22:47:27.414Z,73.83
2017-12-20T22:49:55.304Z,62.50
2017-12-20T22:52:22.888Z,64.47
2017-12-20T22:54:50.531Z,64.63
2017-12-20T22:57:18.121Z,74.40
2017-12-20T22:59:45.767Z,70.53
2017-12-20T23:02:13.633Z,64.10
2017-12-20T23:04:41.214Z,65.57
2017-12-20T23:07:08.849Z,62.03
2017-12-20T23:09:36.443Z,61.27
2017-12-20T23:12:04.078Z,63.80
2017-12-20T23:14:31.676Z,65.23
2017-12-20T23:16:59.277Z,65.73
2017-12-20T23:19:26.893Z,57.50
2017-12-20T23:21:54.502Z,65.23
2017-12-20T23:24:22.128Z,67.50
2017-12-20T23:26:49.707Z,58.03
2017-12-20T23:29:17.307Z,58.30
2017-12-20T23:31:44.920Z,54.23
2017-12-20T23:34:12.529Z,58.47
2017-12-20T23:36:40.149Z,51.53
2017-12-20T23:39:07.793Z,48.57
2017-12-20T23:41:35.384Z,59.17
2017-12-20T23:44:03.012Z,50.87
2017-12-20T23:46:30.643Z,54.67
2017-12-20T23:48:58.306Z,48.60
2017-12-20T23:51:26.376Z,42.93
2017-12-20T23:53:53.975Z,50.77
2017-12-20T23:56:21.590Z,45.73
2017-12-20T23:58:49.171Z,42.37
